sensor_id;sensor_type;location;lat;lon;timestamp;pressure;altitude;pressure_sealevel;temperature;humidity
49949;BME280;35840;45.982;8.890;2022-08-21T00:01:49;98139.44;;;21.26;50.55
49949;BME280;35840;45.982;8.890;2022-08-21T00:04:17;98145.16;;;21.29;50.72
49949;BME280;35840;45.982;8.890;2022-08-21T00:06:49;98149.56;;;21.29;50.03
49949;BME280;35840;45.982;8.890;2022-08-21T00:09:16;98149.69;;;21.44;50.36
49949;BME280;35840;45.982;8.890;2022-08-21T00:11:43;98140.91;;;21.37;49.85
49949;BME280;35840;45.982;8.890;2022-08-21T00:14:10;98146.97;;;21.21;49.80
49949;BME280;35840;45.982;8.890;2022-08-21T00:16:38;98141.25;;;21.09;50.15
49949;BME280;35840;45.982;8.890;2022-08-21T00:19:05;98140.13;;;21.11;50.26
49949;BME280;35840;45.982;8.890;2022-08-21T00:21:34;98138.97;;;21.14;50.36
49949;BME280;35840;45.982;8.890;2022-08-21T00:24:01;98131.78;;;21.16;50.84
49949;BME280;35840;45.982;8.890;2022-08-21T00:26:28;98133.41;;;21.25;50.81
49949;BME280;35840;45.982;8.890;2022-08-21T00:28:55;98140.09;;;21.28;50.63
49949;BME280;35840;45.982;8.890;2022-08-21T00:31:24;98142.44;;;20.98;50.13
49949;BME280;35840;45.982;8.890;2022-08-21T00:33:51;98146.03;;;21.05;50.75
49949;BME280;35840;45.982;8.890;2022-08-21T00:36:26;98148.97;;;20.94;51.05
49949;BME280;35840;45.982;8.890;2022-08-21T00:38:52;98147.78;;;20.63;51.82
49949;BME280;35840;45.982;8.890;2022-08-21T00:41:19;98129.66;;;20.54;52.28
49949;BME280;35840;45.982;8.890;2022-08-21T00:44:08;98137.03;;;20.58;52.22
49949;BME280;35840;45.982;8.890;2022-08-21T00:46:37;98131.00;;;20.74;52.28
49949;BME280;35840;45.982;8.890;2022-08-21T00:49:05;98133.94;;;20.71;52.27
49949;BME280;35840;45.982;8.890;2022-08-21T00:51:38;98128.06;;;20.69;52.36
49949;BME280;35840;45.982;8.890;2022-08-21T00:54:07;98119.59;;;20.75;52.06
49949;BME280;35840;45.982;8.890;2022-08-21T00:56:46;98126.09;;;20.88;51.83
49949;BME280;35840;45.982;8.890;2022-08-21T00:59:16;98120.41;;;20.84;52.33
49949;BME280;35840;45.982;8.890;2022-08-21T01:01:44;98118.91;;;20.90;52.19
49949;BME280;35840;45.982;8.890;2022-08-21T01:04:11;98123.13;;;20.91;51.96
49949;BME280;35840;45.982;8.890;2022-08-21T01:06:38;98121.53;;;20.81;51.85
49949;BME280;35840;45.982;8.890;2022-08-21T01:09:05;98114.66;;;20.80;52.08
49949;BME280;35840;45.982;8.890;2022-08-21T01:11:31;98122.34;;;20.74;52.04
49949;BME280;35840;45.982;8.890;2022-08-21T01:13:58;98112.50;;;20.26;51.76
49949;BME280;35840;45.982;8.890;2022-08-21T01:16:25;98127.84;;;20.46;52.09
49949;BME280;35840;45.982;8.890;2022-08-21T01:18:51;98125.56;;;20.43;54.09
49949;BME280;35840;45.982;8.890;2022-08-21T01:21:21;98129.16;;;20.50;54.79
49949;BME280;35840;45.982;8.890;2022-08-21T01:23:56;98124.09;;;20.40;55.03
49949;BME280;35840;45.982;8.890;2022-08-21T01:26:29;98130.28;;;20.39;54.95
49949;BME280;35840;45.982;8.890;2022-08-21T01:31:29;98128.34;;;20.50;54.73
49949;BME280;35840;45.982;8.890;2022-08-21T01:33:58;98115.59;;;20.22;55.29
49949;BME280;35840;45.982;8.890;2022-08-21T01:36:26;98122.59;;;20.29;55.27
49949;BME280;35840;45.982;8.890;2022-08-21T01:38:53;98133.88;;;20.38;54.14
49949;BME280;35840;45.982;8.890;2022-08-21T01:41:19;98132.25;;;20.45;55.21
49949;BME280;35840;45.982;8.890;2022-08-21T01:43:46;98129.47;;;20.39;53.81
49949;BME280;35840;45.982;8.890;2022-08-21T01:46:13;98127.34;;;20.26;54.52
49949;BME280;35840;45.982;8.890;2022-08-21T01:48:40;98114.44;;;20.16;55.25
49949;BME280;35840;45.982;8.890;2022-08-21T01:51:07;98110.00;;;20.08;55.98
49949;BME280;35840;45.982;8.890;2022-08-21T01:53:35;98115.19;;;19.92;56.39
49949;BME280;35840;45.982;8.890;2022-08-21T01:56:06;98112.16;;;19.78;56.65
49949;BME280;35840;45.982;8.890;2022-08-21T01:58:40;98106.19;;;19.86;56.41
49949;BME280;35840;45.982;8.890;2022-08-21T02:01:07;98108.63;;;19.80;56.14
49949;BME280;35840;45.982;8.890;2022-08-21T02:03:34;98101.00;;;19.86;56.30
49949;BME280;35840;45.982;8.890;2022-08-21T02:06:06;98101.16;;;19.93;55.53
49949;BME280;35840;45.982;8.890;2022-08-21T02:08:33;98099.91;;;19.71;55.70
49949;BME280;35840;45.982;8.890;2022-08-21T02:11:00;98091.94;;;19.72;55.81
49949;BME280;35840;45.982;8.890;2022-08-21T02:13:27;98100.56;;;19.73;56.69
49949;BME280;35840;45.982;8.890;2022-08-21T02:15:53;98104.66;;;19.75;57.14
49949;BME280;35840;45.982;8.890;2022-08-21T02:18:20;98104.66;;;19.75;56.25
49949;BME280;35840;45.982;8.890;2022-08-21T02:20:48;98104.34;;;19.78;57.07
49949;BME280;35840;45.982;8.890;2022-08-21T02:23:22;98102.91;;;19.84;57.03
49949;BME280;35840;45.982;8.890;2022-08-21T02:26:00;98088.38;;;19.73;57.34
49949;BME280;35840;45.982;8.890;2022-08-21T02:28:27;98097.97;;;19.73;56.99
49949;BME280;35840;45.982;8.890;2022-08-21T02:30:56;98097.22;;;19.81;57.40
49949;BME280;35840;45.982;8.890;2022-08-21T02:33:23;98094.78;;;19.79;57.50
49949;BME280;35840;45.982;8.890;2022-08-21T02:35:51;98093.44;;;19.83;56.71
49949;BME280;35840;45.982;8.890;2022-08-21T02:38:28;98087.00;;;19.61;56.05
49949;BME280;35840;45.982;8.890;2022-08-21T02:40:56;98084.72;;;19.58;56.57
49949;BME280;35840;45.982;8.890;2022-08-21T02:43:24;98096.06;;;19.49;57.88
49949;BME280;35840;45.982;8.890;2022-08-21T02:45:53;98082.28;;;19.56;57.69
49949;BME280;35840;45.982;8.890;2022-08-21T02:48:23;98084.47;;;19.43;57.83
49949;BME280;35840;45.982;8.890;2022-08-21T02:50:59;98081.56;;;19.46;57.41
49949;BME280;35840;45.982;8.890;2022-08-21T02:53:27;98079.47;;;19.50;56.98
49949;BME280;35840;45.982;8.890;2022-08-21T02:55:57;98074.41;;;19.48;57.08
49949;BME280;35840;45.982;8.890;2022-08-21T02:58:28;98066.50;;;19.32;57.28
49949;BME280;35840;45.982;8.890;2022-08-21T03:00:57;98071.53;;;19.59;56.83
49949;BME280;35840;45.982;8.890;2022-08-21T03:03:25;98076.28;;;19.72;56.34
49949;BME280;35840;45.982;8.890;2022-08-21T03:05:53;98072.09;;;19.80;56.74
49949;BME280;35840;45.982;8.890;2022-08-21T03:08:21;98067.00;;;19.78;56.29
49949;BME280;35840;45.982;8.890;2022-08-21T03:10:52;98074.66;;;19.71;56.53
49949;BME280;35840;45.982;8.890;2022-08-21T03:13:19;98079.94;;;19.80;56.11
49949;BME280;35840;45.982;8.890;2022-08-21T03:15:47;98081.88;;;19.86;55.31
49949;BME280;35840;45.982;8.890;2022-08-21T03:18:15;98076.22;;;19.99;55.40
49949;BME280;35840;45.982;8.890;2022-08-21T03:20:41;98077.84;;;20.00;55.74
49949;BME280;35840;45.982;8.890;2022-08-21T03:23:08;98077.00;;;19.83;56.57
49949;BME280;35840;45.982;8.890;2022-08-21T03:25:40;98078.56;;;19.75;57.55
49949;BME280;35840;45.982;8.890;2022-08-21T03:28:13;98074.31;;;19.74;57.03
49949;BME280;35840;45.982;8.890;2022-08-21T03:30:41;98072.84;;;19.64;58.35
49949;BME280;35840;45.982;8.890;2022-08-21T03:33:09;98077.69;;;19.58;58.16
49949;BME280;35840;45.982;8.890;2022-08-21T03:35:42;98071.84;;;19.65;58.27
49949;BME280;35840;45.982;8.890;2022-08-21T03:38:09;98074.97;;;19.68;58.05
49949;BME280;35840;45.982;8.890;2022-08-21T03:40:36;98075.00;;;19.76;57.69
49949;BME280;35840;45.982;8.890;2022-08-21T03:43:03;98071.78;;;19.83;57.27
49949;BME280;35840;45.982;8.890;2022-08-21T03:45:30;98061.28;;;19.66;56.81
49949;BME280;35840;45.982;8.890;2022-08-21T03:47:59;98055.91;;;19.76;56.56
49949;BME280;35840;45.982;8.890;2022-08-21T03:50:29;98058.72;;;19.83;55.85
49949;BME280;35840;45.982;8.890;2022-08-21T03:52:57;98063.00;;;19.92;56.81
49949;BME280;35840;45.982;8.890;2022-08-21T03:55:25;98059.34;;;19.76;57.04
49949;BME280;35840;45.982;8.890;2022-08-21T03:57:52;98053.78;;;19.71;56.58
49949;BME280;35840;45.982;8.890;2022-08-21T04:00:20;98065.19;;;19.70;56.01
49949;BME280;35840;45.982;8.890;2022-08-21T04:02:47;98061.94;;;19.68;56.66
49949;BME280;35840;45.982;8.890;2022-08-21T04:05:15;98072.03;;;19.71;56.22
49949;BME280;35840;45.982;8.890;2022-08-21T04:08:04;98057.84;;;19.66;55.82
49949;BME280;35840;45.982;8.890;2022-08-21T04:10:33;98067.78;;;19.62;55.86
49949;BME280;35840;45.982;8.890;2022-08-21T04:13:01;98065.06;;;19.72;56.05
49949;BME280;35840;45.982;8.890;2022-08-21T04:15:28;98062.56;;;19.70;56.41
49949;BME280;35840;45.982;8.890;2022-08-21T04:17:54;98056.91;;;19.75;56.74
49949;BME280;35840;45.982;8.890;2022-08-21T04:20:22;98063.72;;;19.68;56.54
49949;BME280;35840;45.982;8.890;2022-08-21T04:22:49;98066.50;;;19.74;56.74
49949;BME280;35840;45.982;8.890;2022-08-21T04:25:19;98057.03;;;19.65;56.45
49949;BME280;35840;45.982;8.890;2022-08-21T04:27:46;98061.41;;;19.65;56.70
49949;BME280;35840;45.982;8.890;2022-08-21T04:30:14;98064.50;;;19.60;56.80
49949;BME280;35840;45.982;8.890;2022-08-21T04:32:43;98074.88;;;19.43;57.17
49949;BME280;35840;45.982;8.890;2022-08-21T04:35:11;98071.50;;;19.25;57.90
49949;BME280;35840;45.982;8.890;2022-08-21T04:37:38;98074.69;;;19.37;58.33
49949;BME280;35840;45.982;8.890;2022-08-21T04:40:10;98077.22;;;19.55;58.21
49949;BME280;35840;45.982;8.890;2022-08-21T04:42:52;98073.63;;;19.56;58.27
49949;BME280;35840;45.982;8.890;2022-08-21T04:45:22;98081.72;;;19.44;58.46
49949;BME280;35840;45.982;8.890;2022-08-21T04:47:51;98077.63;;;19.42;57.72
49949;BME280;35840;45.982;8.890;2022-08-21T04:50:37;98080.91;;;19.44;56.50
49949;BME280;35840;45.982;8.890;2022-08-21T04:53:08;98094.22;;;19.33;57.04
49949;BME280;35840;45.982;8.890;2022-08-21T04:55:36;98089.81;;;19.33;57.53
49949;BME280;35840;45.982;8.890;2022-08-21T04:58:05;98088.47;;;19.29;58.31
49949;BME280;35840;45.982;8.890;2022-08-21T05:00:33;98098.47;;;19.34;57.59
49949;BME280;35840;45.982;8.890;2022-08-21T05:03:01;98096.41;;;19.19;57.24
49949;BME280;35840;45.982;8.890;2022-08-21T05:05:29;98100.06;;;19.26;56.93
49949;BME280;35840;45.982;8.890;2022-08-21T05:07:58;98099.44;;;19.33;56.89
49949;BME280;35840;45.982;8.890;2022-08-21T05:10:26;98104.84;;;19.39;56.81
49949;BME280;35840;45.982;8.890;2022-08-21T05:12:53;98107.09;;;19.34;57.58
49949;BME280;35840;45.982;8.890;2022-08-21T05:15:21;98104.31;;;19.36;57.83
49949;BME280;35840;45.982;8.890;2022-08-21T05:17:47;98097.19;;;19.38;57.22
49949;BME280;35840;45.982;8.890;2022-08-21T05:20:28;98088.41;;;19.13;57.21
49949;BME280;35840;45.982;8.890;2022-08-21T05:22:55;98104.53;;;19.42;57.64
49949;BME280;35840;45.982;8.890;2022-08-21T05:25:22;98106.31;;;19.42;58.42
49949;BME280;35840;45.982;8.890;2022-08-21T05:27:49;98108.09;;;19.41;57.79
49949;BME280;35840;45.982;8.890;2022-08-21T05:30:18;98116.47;;;19.53;57.24
49949;BME280;35840;45.982;8.890;2022-08-21T05:32:46;98110.94;;;19.56;56.63
49949;BME280;35840;45.982;8.890;2022-08-21T05:35:13;98109.19;;;19.65;56.56
49949;BME280;35840;45.982;8.890;2022-08-21T05:37:40;98107.75;;;19.71;56.22
49949;BME280;35840;45.982;8.890;2022-08-21T05:40:07;98105.94;;;19.71;57.10
49949;BME280;35840;45.982;8.890;2022-08-21T05:42:49;98114.13;;;19.76;57.41
49949;BME280;35840;45.982;8.890;2022-08-21T05:45:22;98118.50;;;19.68;57.55
49949;BME280;35840;45.982;8.890;2022-08-21T05:48:18;98111.50;;;19.76;56.54
49949;BME280;35840;45.982;8.890;2022-08-21T05:50:47;98109.88;;;19.75;56.80
49949;BME280;35840;45.982;8.890;2022-08-21T05:53:15;98112.00;;;19.72;56.96
49949;BME280;35840;45.982;8.890;2022-08-21T05:55:42;98110.25;;;19.89;56.77
49949;BME280;35840;45.982;8.890;2022-08-21T05:58:18;98107.34;;;20.00;56.40
49949;BME280;35840;45.982;8.890;2022-08-21T06:00:47;98103.81;;;20.09;56.67
49949;BME280;35840;45.982;8.890;2022-08-21T06:03:21;98106.25;;;20.11;57.14
49949;BME280;35840;45.982;8.890;2022-08-21T06:05:48;98101.19;;;20.09;56.50
49949;BME280;35840;45.982;8.890;2022-08-21T06:08:15;98114.28;;;20.18;56.79
49949;BME280;35840;45.982;8.890;2022-08-21T06:10:44;98104.63;;;20.18;56.63
49949;BME280;35840;45.982;8.890;2022-08-21T06:13:11;98097.16;;;20.23;56.77
49949;BME280;35840;45.982;8.890;2022-08-21T06:15:38;98085.41;;;20.27;56.49
49949;BME280;35840;45.982;8.890;2022-08-21T06:18:05;98093.72;;;20.31;55.82
49949;BME280;35840;45.982;8.890;2022-08-21T06:20:32;98096.00;;;20.18;55.63
49949;BME280;35840;45.982;8.890;2022-08-21T06:22:59;98102.69;;;20.37;55.40
49949;BME280;35840;45.982;8.890;2022-08-21T06:25:26;98087.72;;;20.47;55.37
49949;BME280;35840;45.982;8.890;2022-08-21T06:27:53;98086.09;;;20.54;54.86
49949;BME280;35840;45.982;8.890;2022-08-21T06:30:26;98082.97;;;20.59;54.73
49949;BME280;35840;45.982;8.890;2022-08-21T06:32:52;98080.22;;;20.69;54.97
49949;BME280;35840;45.982;8.890;2022-08-21T06:35:19;98078.09;;;20.80;54.86
49949;BME280;35840;45.982;8.890;2022-08-21T06:37:46;98078.91;;;20.81;54.11
49949;BME280;35840;45.982;8.890;2022-08-21T06:40:12;98089.22;;;20.74;54.13
49949;BME280;35840;45.982;8.890;2022-08-21T06:42:39;98069.28;;;20.81;53.95
49949;BME280;35840;45.982;8.890;2022-08-21T06:45:09;98076.94;;;20.91;53.37
49949;BME280;35840;45.982;8.890;2022-08-21T06:47:35;98075.75;;;21.02;53.10
49949;BME280;35840;45.982;8.890;2022-08-21T06:50:03;98078.53;;;21.09;52.67
49949;BME280;35840;45.982;8.890;2022-08-21T06:52:30;98072.16;;;21.11;53.23
49949;BME280;35840;45.982;8.890;2022-08-21T06:54:56;98072.78;;;21.13;53.16
49949;BME280;35840;45.982;8.890;2022-08-21T06:57:23;98060.38;;;21.15;53.37
49949;BME280;35840;45.982;8.890;2022-08-21T06:59:51;98061.81;;;21.26;51.90
49949;BME280;35840;45.982;8.890;2022-08-21T07:02:18;98070.13;;;21.38;53.78
49949;BME280;35840;45.982;8.890;2022-08-21T07:04:44;98080.38;;;21.48;53.15
49949;BME280;35840;45.982;8.890;2022-08-21T07:07:11;98074.00;;;21.50;52.82
49949;BME280;35840;45.982;8.890;2022-08-21T07:09:38;98068.28;;;21.55;52.22
49949;BME280;35840;45.982;8.890;2022-08-21T07:12:04;98073.13;;;21.66;50.66
49949;BME280;35840;45.982;8.890;2022-08-21T07:14:32;98074.44;;;21.71;51.68
49949;BME280;35840;45.982;8.890;2022-08-21T07:16:58;98070.31;;;21.76;51.34
49949;BME280;35840;45.982;8.890;2022-08-21T07:19:25;98067.53;;;21.78;50.84
49949;BME280;35840;45.982;8.890;2022-08-21T07:21:58;98069.78;;;21.81;51.27
49949;BME280;35840;45.982;8.890;2022-08-21T07:24:26;98062.75;;;21.81;51.75
49949;BME280;35840;45.982;8.890;2022-08-21T07:26:53;98061.06;;;21.89;50.85
49949;BME280;35840;45.982;8.890;2022-08-21T07:29:19;98057.78;;;21.95;50.02
49949;BME280;35840;45.982;8.890;2022-08-21T07:31:46;98056.72;;;22.04;49.88
49949;BME280;35840;45.982;8.890;2022-08-21T07:34:13;98054.75;;;22.06;50.84
49949;BME280;35840;45.982;8.890;2022-08-21T07:36:40;98055.38;;;22.08;52.00
49949;BME280;35840;45.982;8.890;2022-08-21T07:39:07;98059.78;;;22.16;50.88
49949;BME280;35840;45.982;8.890;2022-08-21T07:41:34;98059.41;;;22.19;50.98
49949;BME280;35840;45.982;8.890;2022-08-21T07:44:02;98054.63;;;22.23;52.86
49949;BME280;35840;45.982;8.890;2022-08-21T07:46:32;98052.66;;;22.25;49.62
49949;BME280;35840;45.982;8.890;2022-08-21T07:48:59;98053.47;;;22.25;50.20
49949;BME280;35840;45.982;8.890;2022-08-21T07:51:27;98051.31;;;22.29;48.84
49949;BME280;35840;45.982;8.890;2022-08-21T07:53:57;98044.78;;;22.33;51.45
49949;BME280;35840;45.982;8.890;2022-08-21T07:56:24;98043.88;;;22.41;49.42
49949;BME280;35840;45.982;8.890;2022-08-21T07:58:51;98043.28;;;22.53;48.30
49949;BME280;35840;45.982;8.890;2022-08-21T08:01:19;98043.75;;;22.57;49.63
49949;BME280;35840;45.982;8.890;2022-08-21T08:03:46;98031.28;;;22.59;51.27
49949;BME280;35840;45.982;8.890;2022-08-21T08:06:13;98041.50;;;22.69;50.68
49949;BME280;35840;45.982;8.890;2022-08-21T08:08:41;98028.22;;;22.70;50.45
49949;BME280;35840;45.982;8.890;2022-08-21T08:11:08;98037.84;;;22.78;50.06
49949;BME280;35840;45.982;8.890;2022-08-21T08:13:49;98040.19;;;22.88;50.40
49949;BME280;35840;45.982;8.890;2022-08-21T08:16:16;98038.00;;;22.92;51.29
49949;BME280;35840;45.982;8.890;2022-08-21T08:18:44;98029.59;;;22.96;49.36
49949;BME280;35840;45.982;8.890;2022-08-21T08:21:12;98020.75;;;22.97;50.92
49949;BME280;35840;45.982;8.890;2022-08-21T08:23:39;98021.78;;;23.11;49.88
49949;BME280;35840;45.982;8.890;2022-08-21T08:26:05;98018.41;;;23.17;49.40
49949;BME280;35840;45.982;8.890;2022-08-21T08:28:32;98019.88;;;23.20;48.66
49949;BME280;35840;45.982;8.890;2022-08-21T08:31:00;98019.50;;;23.23;50.10
49949;BME280;35840;45.982;8.890;2022-08-21T08:33:27;98015.97;;;23.31;50.78
49949;BME280;35840;45.982;8.890;2022-08-21T08:35:54;98009.56;;;23.33;50.98
49949;BME280;35840;45.982;8.890;2022-08-21T08:38:22;98001.38;;;23.43;47.25
49949;BME280;35840;45.982;8.890;2022-08-21T08:41:13;98014.16;;;23.46;47.99
49949;BME280;35840;45.982;8.890;2022-08-21T08:43:42;98002.63;;;23.47;48.46
49949;BME280;35840;45.982;8.890;2022-08-21T08:46:35;98001.91;;;23.53;47.06
49949;BME280;35840;45.982;8.890;2022-08-21T08:49:10;97993.47;;;23.58;51.24
49949;BME280;35840;45.982;8.890;2022-08-21T08:54:23;97998.06;;;23.71;46.76
49949;BME280;35840;45.982;8.890;2022-08-21T08:56:53;98000.94;;;23.76;49.10
49949;BME280;35840;45.982;8.890;2022-08-21T08:59:26;97997.03;;;23.87;48.85
49949;BME280;35840;45.982;8.890;2022-08-21T09:01:55;97998.09;;;23.93;47.94
49949;BME280;35840;45.982;8.890;2022-08-21T09:04:26;97990.84;;;23.95;47.44
49949;BME280;35840;45.982;8.890;2022-08-21T09:17:52;97979.81;;;24.28;46.90
49949;BME280;35840;45.982;8.890;2022-08-21T09:20:32;97976.75;;;24.24;45.09
49949;BME280;35840;45.982;8.890;2022-08-21T09:23:25;97980.69;;;24.35;46.50
49949;BME280;35840;45.982;8.890;2022-08-21T09:28:33;97979.34;;;24.46;43.84
49949;BME280;35840;45.982;8.890;2022-08-21T09:31:01;97978.97;;;24.49;42.52
49949;BME280;35840;45.982;8.890;2022-08-21T09:33:29;97972.31;;;24.53;41.78
49949;BME280;35840;45.982;8.890;2022-08-21T09:35:56;97977.28;;;24.63;42.89
49949;BME280;35840;45.982;8.890;2022-08-21T09:38:33;97972.22;;;24.68;44.40
49949;BME280;35840;45.982;8.890;2022-08-21T09:41:08;97965.03;;;24.77;43.48
49949;BME280;35840;45.982;8.890;2022-08-21T09:43:37;97969.16;;;24.92;46.06
49949;BME280;35840;45.982;8.890;2022-08-21T09:46:19;97972.38;;;24.95;43.63
49949;BME280;35840;45.982;8.890;2022-08-21T09:48:53;97967.59;;;25.05;46.78
49949;BME280;35840;45.982;8.890;2022-08-21T09:51:26;97955.44;;;25.04;41.97
49949;BME280;35840;45.982;8.890;2022-08-21T09:56:35;97959.53;;;25.20;44.44
49949;BME280;35840;45.982;8.890;2022-08-21T09:59:33;97959.56;;;25.26;44.73
49949;BME280;35840;45.982;8.890;2022-08-21T10:02:30;97944.25;;;25.37;46.21
49949;BME280;35840;45.982;8.890;2022-08-21T10:05:01;97956.59;;;25.43;45.82
49949;BME280;35840;45.982;8.890;2022-08-21T10:07:30;97951.59;;;25.55;45.17
49949;BME280;35840;45.982;8.890;2022-08-21T10:12:48;97945.53;;;25.61;41.05
49949;BME280;35840;45.982;8.890;2022-08-21T10:15:22;97940.69;;;25.65;40.34
49949;BME280;35840;45.982;8.890;2022-08-21T10:24:34;97935.63;;;25.90;41.15
49949;BME280;35840;45.982;8.890;2022-08-21T10:30:11;97927.31;;;26.00;40.63
49949;BME280;35840;45.982;8.890;2022-08-21T10:35:27;97915.59;;;26.16;39.49
49949;BME280;35840;45.982;8.890;2022-08-21T10:47:02;97903.19;;;26.43;39.59
49949;BME280;35840;45.982;8.890;2022-08-21T10:49:44;97902.34;;;26.49;35.94
49949;BME280;35840;45.982;8.890;2022-08-21T10:52:23;97900.94;;;26.53;36.69
49949;BME280;35840;45.982;8.890;2022-08-21T10:55:06;97897.66;;;26.58;36.00
49949;BME280;35840;45.982;8.890;2022-08-21T10:57:51;97895.66;;;26.53;36.33
49949;BME280;35840;45.982;8.890;2022-08-21T11:00:23;97894.22;;;26.64;39.43
49949;BME280;35840;45.982;8.890;2022-08-21T11:05:57;97886.91;;;26.73;36.88
49949;BME280;35840;45.982;8.890;2022-08-21T11:08:32;97890.97;;;26.75;37.37
49949;BME280;35840;45.982;8.890;2022-08-21T11:14:04;97891.31;;;26.86;40.20
49949;BME280;35840;45.982;8.890;2022-08-21T11:16:42;97889.66;;;26.91;39.36
49949;BME280;35840;45.982;8.890;2022-08-21T11:19:19;97865.56;;;26.81;36.06
49949;BME280;35840;45.982;8.890;2022-08-21T11:24:47;97878.88;;;27.00;36.83
49949;BME280;35840;45.982;8.890;2022-08-21T11:27:26;97872.59;;;27.01;36.79
49949;BME280;35840;45.982;8.890;2022-08-21T11:29:59;97876.59;;;27.10;37.43
49949;BME280;35840;45.982;8.890;2022-08-21T11:43:39;97856.16;;;27.62;30.05
49949;BME280;35840;45.982;8.890;2022-08-21T11:49:33;97849.00;;;27.70;30.07
49949;BME280;35840;45.982;8.890;2022-08-21T11:52:13;97841.56;;;27.85;29.74
49949;BME280;35840;45.982;8.890;2022-08-21T11:57:21;97832.88;;;27.78;34.02
49949;BME280;35840;45.982;8.890;2022-08-21T11:59:59;97830.06;;;27.73;31.34
49949;BME280;35840;45.982;8.890;2022-08-21T12:02:34;97827.78;;;27.83;29.69
49949;BME280;35840;45.982;8.890;2022-08-21T12:05:06;97828.69;;;27.70;31.54
49949;BME280;35840;45.982;8.890;2022-08-21T12:07:42;97816.81;;;27.54;30.06
49949;BME280;35840;45.982;8.890;2022-08-21T12:10:14;97824.25;;;27.64;30.96
49949;BME280;35840;45.982;8.890;2022-08-21T12:12:44;97820.69;;;27.77;30.15
49949;BME280;35840;45.982;8.890;2022-08-21T12:15:23;97817.63;;;27.80;28.83
49949;BME280;35840;45.982;8.890;2022-08-21T12:18:22;97816.25;;;27.77;28.99
49949;BME280;35840;45.982;8.890;2022-08-21T12:24:02;97813.41;;;27.97;32.38
49949;BME280;35840;45.982;8.890;2022-08-21T12:29:12;97806.97;;;28.12;31.42
49949;BME280;35840;45.982;8.890;2022-08-21T12:32:01;97811.03;;;28.14;34.23
49949;BME280;35840;45.982;8.890;2022-08-21T12:34:42;97798.03;;;28.13;32.47
49949;BME280;35840;45.982;8.890;2022-08-21T12:37:20;97799.06;;;28.12;32.88
49949;BME280;35840;45.982;8.890;2022-08-21T12:39:51;97792.22;;;28.23;34.33
49949;BME280;35840;45.982;8.890;2022-08-21T12:42:23;97785.47;;;28.27;36.09
49949;BME280;35840;45.982;8.890;2022-08-21T12:45:03;97786.22;;;28.34;35.29
49949;BME280;35840;45.982;8.890;2022-08-21T12:47:47;97779.97;;;28.28;34.35
49949;BME280;35840;45.982;8.890;2022-08-21T12:50:22;97776.81;;;28.38;34.56
49949;BME280;35840;45.982;8.890;2022-08-21T12:53:09;97778.78;;;28.43;32.36
49949;BME280;35840;45.982;8.890;2022-08-21T12:55:45;97767.53;;;28.47;32.85
49949;BME280;35840;45.982;8.890;2022-08-21T12:58:20;97766.72;;;28.47;30.67
49949;BME280;35840;45.982;8.890;2022-08-21T13:00:48;97769.00;;;28.43;30.92
49949;BME280;35840;45.982;8.890;2022-08-21T13:03:16;97769.06;;;28.55;31.24
49949;BME280;35840;45.982;8.890;2022-08-21T13:05:43;97752.69;;;28.46;29.22
49949;BME280;35840;45.982;8.890;2022-08-21T13:08:11;97757.94;;;28.65;31.53
49949;BME280;35840;45.982;8.890;2022-08-21T13:10:40;97755.00;;;28.73;31.57
49949;BME280;35840;45.982;8.890;2022-08-21T13:13:12;97762.81;;;28.68;28.25
49949;BME280;35840;45.982;8.890;2022-08-21T13:16:03;97756.13;;;28.65;28.00
49949;BME280;35840;45.982;8.890;2022-08-21T13:18:33;97756.34;;;28.64;29.45
49949;BME280;35840;45.982;8.890;2022-08-21T13:21:11;97760.28;;;28.73;28.70
49949;BME280;35840;45.982;8.890;2022-08-21T13:23:39;97750.97;;;28.71;29.94
49949;BME280;35840;45.982;8.890;2022-08-21T13:28:44;97744.25;;;28.87;28.62
49949;BME280;35840;45.982;8.890;2022-08-21T13:31:31;97746.66;;;28.88;25.80
49949;BME280;35840;45.982;8.890;2022-08-21T13:33:59;97750.53;;;28.74;28.70
49949;BME280;35840;45.982;8.890;2022-08-21T13:36:30;97743.41;;;28.56;26.73
49949;BME280;35840;45.982;8.890;2022-08-21T13:38:58;97745.50;;;28.84;26.94
49949;BME280;35840;45.982;8.890;2022-08-21T13:41:29;97749.88;;;28.90;27.99
49949;BME280;35840;45.982;8.890;2022-08-21T13:46:30;97735.03;;;28.89;25.42
49949;BME280;35840;45.982;8.890;2022-08-21T13:48:59;97732.94;;;28.79;27.27
49949;BME280;35840;45.982;8.890;2022-08-21T13:51:26;97737.81;;;28.94;27.50
49949;BME280;35840;45.982;8.890;2022-08-21T13:53:54;97732.53;;;29.06;28.01
49949;BME280;35840;45.982;8.890;2022-08-21T13:56:30;97734.59;;;29.04;28.97
49949;BME280;35840;45.982;8.890;2022-08-21T13:58:59;97729.69;;;29.08;28.56
49949;BME280;35840;45.982;8.890;2022-08-21T14:01:30;97724.41;;;29.31;25.14
49949;BME280;35840;45.982;8.890;2022-08-21T14:04:16;97725.34;;;29.37;24.79
49949;BME280;35840;45.982;8.890;2022-08-21T14:06:46;97727.53;;;29.28;25.78
49949;BME280;35840;45.982;8.890;2022-08-21T14:11:47;97719.88;;;29.20;25.90
49949;BME280;35840;45.982;8.890;2022-08-21T14:14:23;97716.94;;;29.28;25.67
49949;BME280;35840;45.982;8.890;2022-08-21T14:17:01;97720.28;;;29.47;25.81
49949;BME280;35840;45.982;8.890;2022-08-21T14:19:48;97717.16;;;29.50;26.16
49949;BME280;35840;45.982;8.890;2022-08-21T14:22:44;97715.44;;;29.56;25.25
49949;BME280;35840;45.982;8.890;2022-08-21T14:25:14;97712.56;;;29.58;26.75
49949;BME280;35840;45.982;8.890;2022-08-21T14:27:54;97718.19;;;29.61;27.43
49949;BME280;35840;45.982;8.890;2022-08-21T14:30:29;97708.41;;;29.62;29.62
49949;BME280;35840;45.982;8.890;2022-08-21T14:32:56;97699.53;;;29.68;26.96
49949;BME280;35840;45.982;8.890;2022-08-21T14:35:23;97699.19;;;29.64;26.62
49949;BME280;35840;45.982;8.890;2022-08-21T14:37:51;97695.59;;;29.70;26.82
49949;BME280;35840;45.982;8.890;2022-08-21T14:40:19;97701.03;;;29.76;28.38
49949;BME280;35840;45.982;8.890;2022-08-21T14:42:46;97698.94;;;29.78;26.33
49949;BME280;35840;45.982;8.890;2022-08-21T14:45:16;97690.75;;;29.79;24.14